createdAt,value
2018-12-30T00:00:23.530Z,34.00
2018-12-30T00:01:23.478Z,33.90
2018-12-30T00:02:23.396Z,33.80
2018-12-30T00:03:23.330Z,36.30
2018-12-30T00:04:23.253Z,34.70
2018-12-30T00:05:23.197Z,34.10
2018-12-30T00:06:23.118Z,33.70
2018-12-30T00:07:23.048Z,33.70
2018-12-30T00:08:22.976Z,32.40
2018-12-30T00:09:22.911Z,31.10
2018-12-30T00:10:22.841Z,32.10
2018-12-30T00:11:22.772Z,30.70
2018-12-30T00:12:22.700Z,34.80
2018-12-30T00:13:22.636Z,36.20
2018-12-30T00:14:22.564Z,31.10
2018-12-30T00:15:22.500Z,32.10
2018-12-30T00:16:22.425Z,35.90
2018-12-30T00:17:22.360Z,34.20
2018-12-30T00:18:22.291Z,32.40
2018-12-30T00:19:22.225Z,34.30
2018-12-30T00:20:22.150Z,32.10
2018-12-30T00:21:22.086Z,32.30
2018-12-30T00:22:22.017Z,30.90
2018-12-30T00:23:21.947Z,34.50
2018-12-30T00:24:21.881Z,31.20
2018-12-30T00:25:21.811Z,31.60
2018-12-30T00:26:21.739Z,31.60
2018-12-30T00:27:21.671Z,33.90
2018-12-30T00:28:21.603Z,30.90
2018-12-30T00:29:21.533Z,30.30
2018-12-30T00:30:21.464Z,33.70
2018-12-30T00:31:21.396Z,29.90
2018-12-30T00:32:21.328Z,30.70
2018-12-30T00:33:21.260Z,34.40
2018-12-30T00:34:21.191Z,31.20
2018-12-30T00:35:21.120Z,28.60
2018-12-30T00:36:21.051Z,29.90
2018-12-30T00:37:20.985Z,30.30
2018-12-30T00:38:20.918Z,28.60
2018-12-30T00:39:20.844Z,27.10
2018-12-30T00:40:20.779Z,26.20
2018-12-30T00:41:20.708Z,30.80
2018-12-30T00:42:20.647Z,29.80
2018-12-30T00:43:20.573Z,30.80
2018-12-30T00:44:20.504Z,32.60
2018-12-30T00:45:20.434Z,29.50
2018-12-30T00:46:20.361Z,30.60
2018-12-30T00:47:20.296Z,33.10
2018-12-30T00:48:20.225Z,31.40
2018-12-30T00:49:20.163Z,32.50
2018-12-30T00:50:20.090Z,30.70
2018-12-30T00:51:20.025Z,29.30
2018-12-30T00:52:19.959Z,28.10
2018-12-30T00:53:19.893Z,30.10
2018-12-30T00:54:19.814Z,31.90
2018-12-30T00:55:19.745Z,29.90
2018-12-30T00:56:19.678Z,28.90
2018-12-30T00:57:19.608Z,31.50
2018-12-30T00:58:19.536Z,31.70
2018-12-30T00:59:19.471Z,29.40
2018-12-30T01:00:19.402Z,30.70
2018-12-30T01:01:19.332Z,31.20
2018-12-30T01:02:19.261Z,31.80
2018-12-30T01:03:19.195Z,30.20
2018-12-30T01:04:19.127Z,31.70
2018-12-30T01:05:19.142Z,31.80
2018-12-30T01:06:18.989Z,31.30
2018-12-30T01:07:18.919Z,30.80
2018-12-30T01:08:18.853Z,33.60
2018-12-30T01:09:18.781Z,30.00
2018-12-30T01:10:18.710Z,32.20
2018-12-30T01:11:18.648Z,28.10
2018-12-30T01:12:18.577Z,30.00
2018-12-30T01:13:18.507Z,31.80
2018-12-30T01:14:18.440Z,30.90
2018-12-30T01:15:18.383Z,30.40
2018-12-30T01:16:18.300Z,31.00
2018-12-30T01:17:18.230Z,32.90
2018-12-30T01:18:18.165Z,29.40
2018-12-30T01:19:18.098Z,31.10
2018-12-30T01:20:18.026Z,32.00
2018-12-30T01:21:24.773Z,32.90
2018-12-30T01:22:17.887Z,33.50
2018-12-30T01:23:17.817Z,31.60
2018-12-30T01:24:17.748Z,34.60
2018-12-30T01:25:17.679Z,34.10
2018-12-30T01:26:17.613Z,32.30
2018-12-30T01:27:17.543Z,33.30
2018-12-30T01:28:17.472Z,30.50
2018-12-30T01:29:17.403Z,30.30
2018-12-30T01:30:17.338Z,32.20
2018-12-30T01:31:17.268Z,30.00
2018-12-30T01:32:17.202Z,30.10
2018-12-30T01:33:17.133Z,31.80
2018-12-30T01:34:17.066Z,30.90
2018-12-30T01:35:16.993Z,35.30
2018-12-30T01:36:16.926Z,34.30
2018-12-30T01:37:16.855Z,33.50
2018-12-30T01:38:16.788Z,30.50
2018-12-30T01:39:16.715Z,35.10
2018-12-30T01:40:16.651Z,33.00
2018-12-30T01:41:16.584Z,31.70
2018-12-30T01:42:16.522Z,33.90
2018-12-30T01:43:16.452Z,33.40
2018-12-30T01:44:16.376Z,33.00
2018-12-30T01:45:16.309Z,30.60
2018-12-30T01:46:16.239Z,30.50
2018-12-30T01:47:16.169Z,28.80
2018-12-30T01:48:16.101Z,32.90
2018-12-30T01:49:16.034Z,30.50
2018-12-30T01:50:15.963Z,32.80
2018-12-30T01:51:15.894Z,32.10
2018-12-30T01:52:15.826Z,35.00
2018-12-30T01:53:15.760Z,31.20
2018-12-30T01:54:15.688Z,33.00
2018-12-30T01:55:15.622Z,32.20
2018-12-30T01:56:15.549Z,31.60
2018-12-30T01:57:15.483Z,32.50
2018-12-30T01:58:15.412Z,30.60
2018-12-30T01:59:15.348Z,33.00
2018-12-30T02:00:15.283Z,33.00
2018-12-30T02:01:15.209Z,31.90
2018-12-30T02:02:15.139Z,37.90
2018-12-30T02:03:15.099Z,35.90
2018-12-30T02:04:15.024Z,32.50
2018-12-30T02:05:14.936Z,33.50
2018-12-30T02:06:14.873Z,32.10
2018-12-30T02:07:14.797Z,33.60
2018-12-30T02:08:14.728Z,32.00
2018-12-30T02:09:14.659Z,34.80
2018-12-30T02:10:14.590Z,36.50
2018-12-30T02:11:14.522Z,31.80
2018-12-30T02:12:14.453Z,34.00
2018-12-30T02:13:14.387Z,31.50
2018-12-30T02:14:14.314Z,32.10
2018-12-30T02:15:14.250Z,33.10
2018-12-30T02:16:14.180Z,32.70
2018-12-30T02:17:14.114Z,33.40
2018-12-30T02:18:14.046Z,33.80
2018-12-30T02:19:13.985Z,31.20
2018-12-30T02:20:13.907Z,36.40
2018-12-30T02:21:13.838Z,32.90
2018-12-30T02:22:13.771Z,39.40
2018-12-30T02:23:13.700Z,30.30
2018-12-30T02:24:13.631Z,32.30
2018-12-30T02:25:13.563Z,34.30
2018-12-30T02:26:13.500Z,35.40
2018-12-30T02:27:13.425Z,34.80
2018-12-30T02:28:13.357Z,34.70
2018-12-30T02:29:13.290Z,33.70
2018-12-30T02:30:13.221Z,37.10
2018-12-30T02:31:13.151Z,34.70
2018-12-30T02:32:13.081Z,34.90
2018-12-30T02:33:13.016Z,36.60
2018-12-30T02:34:12.947Z,36.80
2018-12-30T02:35:12.875Z,38.30
2018-12-30T02:36:12.809Z,36.60
2018-12-30T02:37:12.739Z,34.80
2018-12-30T02:38:12.671Z,34.50
2018-12-30T02:39:12.603Z,36.80
2018-12-30T02:40:12.534Z,35.00
2018-12-30T02:41:12.467Z,33.70
2018-12-30T02:42:12.399Z,34.70
2018-12-30T02:43:12.332Z,35.40
2018-12-30T02:44:12.265Z,34.90
2018-12-30T02:45:12.193Z,34.60
2018-12-30T02:46:12.122Z,34.80
2018-12-30T02:47:12.070Z,32.50
2018-12-30T02:48:12.010Z,34.90
2018-12-30T02:49:11.922Z,34.70
2018-12-30T02:50:11.848Z,33.40
2018-12-30T02:51:11.782Z,32.90
2018-12-30T02:52:11.711Z,35.70
2018-12-30T02:53:11.640Z,32.50
2018-12-30T02:54:11.572Z,33.20
2018-12-30T02:55:11.506Z,33.10
2018-12-30T02:56:11.437Z,31.10
2018-12-30T02:57:11.366Z,32.10
2018-12-30T02:58:11.298Z,33.40
2018-12-30T02:59:11.230Z,33.10
2018-12-30T03:00:11.162Z,33.50
2018-12-30T03:01:11.109Z,33.80
2018-12-30T03:02:11.025Z,34.80
2018-12-30T03:03:10.955Z,34.90
2018-12-30T03:04:10.888Z,34.70
2018-12-30T03:05:10.822Z,33.60
2018-12-30T03:06:10.755Z,34.50
2018-12-30T03:07:10.690Z,34.70
2018-12-30T03:08:10.615Z,34.60
2018-12-30T03:09:10.545Z,34.90
2018-12-30T03:10:10.476Z,32.90
2018-12-30T03:11:10.410Z,31.00
2018-12-30T03:12:10.340Z,34.60
2018-12-30T03:13:10.272Z,36.30
2018-12-30T03:14:10.211Z,34.30
2018-12-30T03:15:10.133Z,37.30
2018-12-30T03:16:10.066Z,33.00
2018-12-30T03:17:09.999Z,36.50
2018-12-30T03:18:09.930Z,34.70
2018-12-30T03:19:09.859Z,37.60
2018-12-30T03:20:09.792Z,32.90
2018-12-30T03:21:09.725Z,33.20
2018-12-30T03:22:09.655Z,37.60
2018-12-30T03:23:09.587Z,36.40
2018-12-30T03:24:09.521Z,38.30
2018-12-30T03:25:09.456Z,34.00
2018-12-30T03:26:09.381Z,37.90
2018-12-30T03:27:09.311Z,34.80
2018-12-30T03:28:09.243Z,34.50
2018-12-30T03:29:09.176Z,34.30
2018-12-30T03:30:09.118Z,36.50
2018-12-30T03:31:09.047Z,34.80
2018-12-30T03:32:08.976Z,36.00
2018-12-30T03:33:08.903Z,33.90
2018-12-30T03:34:08.858Z,34.50
2018-12-30T03:35:08.767Z,33.30
2018-12-30T03:36:08.694Z,35.50
2018-12-30T03:37:08.626Z,36.90
2018-12-30T03:38:08.559Z,33.90
2018-12-30T03:39:08.486Z,39.30
2018-12-30T03:40:08.424Z,32.30
2018-12-30T03:41:08.355Z,42.50
2018-12-30T03:42:08.285Z,34.50
2018-12-30T03:43:08.222Z,40.10
2018-12-30T03:44:08.155Z,38.70
2018-12-30T03:45:08.081Z,36.00
2018-12-30T03:46:08.010Z,34.70
2018-12-30T03:47:07.941Z,36.70
2018-12-30T03:48:07.874Z,37.40
2018-12-30T03:49:07.804Z,38.00
2018-12-30T03:50:07.746Z,35.40
2018-12-30T03:51:07.665Z,35.40
2018-12-30T03:52:08.517Z,39.00
2018-12-30T03:53:07.534Z,37.10
2018-12-30T03:54:07.462Z,36.20
2018-12-30T03:55:07.465Z,38.80
2018-12-30T03:56:07.326Z,41.40
2018-12-30T03:57:07.260Z,36.70
2018-12-30T03:58:07.188Z,37.10
2018-12-30T03:59:07.120Z,37.90
2018-12-30T04:00:07.053Z,39.30
2018-12-30T04:01:06.985Z,38.50
2018-12-30T04:02:06.913Z,34.00
2018-12-30T04:03:06.848Z,33.50
2018-12-30T04:04:06.779Z,34.20
2018-12-30T04:05:06.707Z,36.20
2018-12-30T04:06:06.643Z,36.00
2018-12-30T04:07:06.574Z,35.60
2018-12-30T04:08:06.516Z,35.50
2018-12-30T04:09:06.437Z,35.80
2018-12-30T04:10:06.366Z,37.30
2018-12-30T04:11:06.298Z,38.20
2018-12-30T04:12:06.226Z,37.20
2018-12-30T04:13:06.161Z,34.90
2018-12-30T04:14:06.092Z,32.40
2018-12-30T04:15:06.023Z,38.40
2018-12-30T04:16:05.961Z,33.60
2018-12-30T04:17:05.890Z,37.50
2018-12-30T04:18:05.820Z,30.90
2018-12-30T04:19:05.751Z,36.10
2018-12-30T04:20:05.683Z,36.40
2018-12-30T04:21:05.621Z,30.60
2018-12-30T04:22:05.554Z,33.10
2018-12-30T04:23:05.489Z,33.20
2018-12-30T04:24:05.409Z,34.40
2018-12-30T04:25:05.340Z,32.30
2018-12-30T04:26:05.277Z,31.80
2018-12-30T04:27:05.205Z,35.60
2018-12-30T04:28:05.134Z,34.30
2018-12-30T04:29:05.069Z,32.00
2018-12-30T04:30:04.999Z,32.90
2018-12-30T04:31:04.932Z,35.70
2018-12-30T04:32:04.861Z,35.40
2018-12-30T04:33:04.794Z,34.80
2018-12-30T04:34:04.727Z,33.30
2018-12-30T04:35:04.666Z,34.50
2018-12-30T04:36:04.584Z,36.70
2018-12-30T04:37:04.522Z,31.60
2018-12-30T04:38:04.452Z,34.20
2018-12-30T04:39:04.386Z,34.20
2018-12-30T04:40:04.320Z,32.90
2018-12-30T04:41:04.255Z,29.20
2018-12-30T04:42:04.181Z,31.20
2018-12-30T04:43:04.113Z,30.80
2018-12-30T04:44:04.046Z,32.30
2018-12-30T04:45:03.978Z,29.40
2018-12-30T04:46:03.916Z,33.50
2018-12-30T04:47:03.841Z,32.80
2018-12-30T04:48:03.771Z,32.70
2018-12-30T04:49:03.704Z,29.60
2018-12-30T04:50:03.636Z,33.20
2018-12-30T04:51:03.564Z,29.20
2018-12-30T04:52:03.502Z,33.00
2018-12-30T04:53:03.434Z,31.60
2018-12-30T04:54:03.363Z,31.80
2018-12-30T04:55:03.298Z,32.70
2018-12-30T04:56:03.230Z,29.80
2018-12-30T04:57:03.161Z,29.30
2018-12-30T04:58:03.089Z,33.10
2018-12-30T04:59:03.020Z,32.50
2018-12-30T05:00:02.955Z,31.40
2018-12-30T05:01:02.889Z,29.80
2018-12-30T05:02:02.818Z,28.90
2018-12-30T05:03:02.749Z,30.00
2018-12-30T05:04:02.702Z,30.80
2018-12-30T05:05:02.610Z,28.70
2018-12-30T05:06:02.544Z,27.90
2018-12-30T05:07:02.476Z,30.50
2018-12-30T05:08:02.409Z,29.60
2018-12-30T05:09:02.341Z,29.30
2018-12-30T05:10:02.275Z,32.30
2018-12-30T05:11:02.205Z,31.10
2018-12-30T05:12:02.138Z,30.40
2018-12-30T05:13:02.074Z,27.70
2018-12-30T05:14:01.997Z,30.20
2018-12-30T05:15:01.951Z,28.00
2018-12-30T05:16:01.866Z,24.10
2018-12-30T05:17:01.796Z,28.30
2018-12-30T05:18:01.730Z,30.60
2018-12-30T05:19:01.657Z,24.70
2018-12-30T05:20:01.589Z,27.20
2018-12-30T05:21:01.521Z,27.70
2018-12-30T05:22:01.453Z,27.10
2018-12-30T05:23:01.388Z,26.10
2018-12-30T05:24:01.318Z,27.10
2018-12-30T05:25:01.251Z,27.30
2018-12-30T05:26:01.182Z,29.10
2018-12-30T05:27:01.113Z,28.70
2018-12-30T05:28:01.046Z,29.70
2018-12-30T05:29:00.977Z,26.80
2018-12-30T05:30:00.910Z,27.70
2018-12-30T05:31:00.842Z,26.20
2018-12-30T05:32:00.773Z,24.80
2018-12-30T05:33:00.707Z,25.10
2018-12-30T05:34:00.644Z,27.20
2018-12-30T05:35:00.569Z,23.40
2018-12-30T05:36:00.501Z,25.90
2018-12-30T05:37:00.438Z,24.50
2018-12-30T05:38:00.365Z,29.60
2018-12-30T05:39:00.297Z,30.10
2018-12-30T05:40:00.290Z,26.60
2018-12-30T05:41:00.168Z,26.50
2018-12-30T05:42:00.095Z,27.90
2018-12-30T05:43:00.028Z,26.20
2018-12-30T05:43:59.957Z,24.90
2018-12-30T05:44:59.890Z,29.10
2018-12-30T05:45:59.822Z,28.80
2018-12-30T05:46:59.755Z,29.70
2018-12-30T05:47:59.686Z,24.80
2018-12-30T05:48:59.622Z,26.70
2018-12-30T05:49:59.548Z,25.20
2018-12-30T05:50:59.482Z,23.40
2018-12-30T05:51:59.417Z,28.60
2018-12-30T05:52:59.345Z,24.90
2018-12-30T05:53:59.277Z,27.10
2018-12-30T05:54:59.211Z,26.60
2018-12-30T05:55:59.143Z,26.60
2018-12-30T05:56:59.075Z,28.30
2018-12-30T05:57:59.007Z,25.40
2018-12-30T05:58:58.938Z,25.90
2018-12-30T05:59:58.872Z,26.30
2018-12-30T06:00:58.803Z,24.80
2018-12-30T06:01:58.739Z,25.20
2018-12-30T06:02:58.665Z,28.20
2018-12-30T06:03:58.598Z,24.80
2018-12-30T06:04:58.529Z,23.60
2018-12-30T06:05:58.462Z,28.00
2018-12-30T06:06:58.394Z,21.70
2018-12-30T06:07:58.326Z,25.80
2018-12-30T06:08:58.259Z,25.60
2018-12-30T06:09:58.190Z,23.70
2018-12-30T06:10:58.122Z,26.90
2018-12-30T06:11:58.055Z,23.30
2018-12-30T06:12:57.990Z,25.40
2018-12-30T06:13:57.918Z,26.20
2018-12-30T06:14:57.850Z,24.30
2018-12-30T06:15:57.784Z,24.60
2018-12-30T06:16:57.716Z,24.10
2018-12-30T06:17:57.645Z,25.40
2018-12-30T06:18:57.578Z,23.80
2018-12-30T06:19:57.512Z,28.10
2018-12-30T06:20:57.444Z,26.40
2018-12-30T06:21:57.374Z,24.60
2018-12-30T06:22:57.307Z,25.50
2018-12-30T06:23:57.239Z,26.10
2018-12-30T06:24:57.171Z,26.80
2018-12-30T06:25:57.101Z,24.30
2018-12-30T06:26:57.035Z,25.70
2018-12-30T06:27:56.966Z,25.50
2018-12-30T06:28:56.900Z,25.50
2018-12-30T06:29:56.832Z,28.20
2018-12-30T06:30:56.766Z,26.50
2018-12-30T06:31:56.694Z,25.80
2018-12-30T06:32:56.635Z,22.80
2018-12-30T06:33:56.559Z,26.40
2018-12-30T06:34:56.491Z,26.50
2018-12-30T06:35:56.422Z,27.80
2018-12-30T06:36:56.354Z,25.90
2018-12-30T06:37:56.291Z,24.50
2018-12-30T06:38:56.217Z,24.90
2018-12-30T06:39:56.151Z,26.00
2018-12-30T06:40:56.085Z,25.40
2018-12-30T06:41:56.015Z,22.50
2018-12-30T06:42:55.947Z,24.10
2018-12-30T06:43:55.880Z,24.20
2018-12-30T06:44:55.815Z,26.90
2018-12-30T06:45:55.742Z,23.90
2018-12-30T06:46:55.677Z,26.40
2018-12-30T06:47:55.608Z,24.50
2018-12-30T06:48:55.540Z,26.20
2018-12-30T06:49:55.469Z,23.90
2018-12-30T06:50:55.404Z,25.00
2018-12-30T06:51:55.402Z,24.40
2018-12-30T06:52:57.769Z,27.50
2018-12-30T06:53:55.203Z,24.40
2018-12-30T06:54:55.132Z,26.10
2018-12-30T06:55:55.064Z,24.90
2018-12-30T06:56:54.994Z,23.50
2018-12-30T06:57:54.924Z,24.70
2018-12-30T06:58:54.860Z,25.60
2018-12-30T06:59:54.790Z,23.50
2018-12-30T07:00:54.726Z,24.20
2018-12-30T07:01:54.653Z,20.70
2018-12-30T07:02:54.587Z,26.80
2018-12-30T07:03:54.518Z,23.70
2018-12-30T07:04:54.450Z,24.70
2018-12-30T07:05:54.383Z,22.80
2018-12-30T07:06:54.319Z,24.30
2018-12-30T07:07:54.247Z,27.60
2018-12-30T07:08:54.178Z,24.40
2018-12-30T07:09:54.110Z,22.10
2018-12-30T07:10:54.040Z,25.30
2018-12-30T07:11:53.976Z,22.80
2018-12-30T07:12:53.908Z,25.40
2018-12-30T07:13:53.836Z,21.70
2018-12-30T07:14:53.770Z,21.90
2018-12-30T07:15:53.702Z,24.50
2018-12-30T07:16:53.634Z,24.70
2018-12-30T07:17:53.565Z,23.10
2018-12-30T07:18:53.498Z,27.50
2018-12-30T07:19:53.432Z,20.60
2018-12-30T07:20:53.361Z,22.20
2018-12-30T07:21:53.294Z,22.40
2018-12-30T07:22:53.226Z,21.00
2018-12-30T07:23:53.158Z,21.60
2018-12-30T07:24:53.151Z,21.60
2018-12-30T07:25:53.023Z,22.10
2018-12-30T07:26:52.957Z,22.10
2018-12-30T07:27:52.886Z,26.40
2018-12-30T07:28:52.822Z,19.90
2018-12-30T07:29:52.751Z,23.20
2018-12-30T07:30:52.685Z,21.40
2018-12-30T07:31:52.616Z,22.40
2018-12-30T07:32:52.546Z,23.50
2018-12-30T07:33:52.480Z,20.20
2018-12-30T07:34:52.413Z,22.80
2018-12-30T07:35:52.344Z,19.10
2018-12-30T07:36:52.277Z,18.50
2018-12-30T07:37:52.209Z,20.90
2018-12-30T07:38:52.141Z,20.10
2018-12-30T07:39:52.074Z,21.90
2018-12-30T07:40:52.010Z,17.30
2018-12-30T07:41:51.936Z,21.20
2018-12-30T07:42:51.872Z,18.60
2018-12-30T07:43:51.801Z,20.90
2018-12-30T07:44:51.736Z,20.40
2018-12-30T07:45:51.665Z,18.70
2018-12-30T07:46:51.598Z,17.60
2018-12-30T07:47:51.531Z,18.20
2018-12-30T07:48:51.464Z,18.50
2018-12-30T07:49:51.394Z,17.40
2018-12-30T07:50:51.327Z,18.40
2018-12-30T07:51:51.262Z,17.70
2018-12-30T07:52:51.191Z,17.30
2018-12-30T07:53:51.125Z,17.90
2018-12-30T07:54:51.056Z,18.70
2018-12-30T07:55:50.989Z,20.10
2018-12-30T07:56:50.922Z,21.40
2018-12-30T07:57:50.852Z,17.00
2018-12-30T07:58:50.787Z,17.80
2018-12-30T07:59:50.718Z,19.30
2018-12-30T08:00:50.652Z,18.30
2018-12-30T08:01:50.583Z,15.20
2018-12-30T08:02:50.516Z,18.20
2018-12-30T08:03:50.452Z,18.60
2018-12-30T08:04:50.379Z,17.50
2018-12-30T08:05:50.384Z,20.30
2018-12-30T08:06:50.245Z,14.50
2018-12-30T08:07:50.179Z,17.50
2018-12-30T08:08:50.107Z,18.90
2018-12-30T08:09:50.044Z,16.80
2018-12-30T08:10:49.975Z,19.00
2018-12-30T08:11:49.905Z,19.30
2018-12-30T08:12:49.839Z,18.20
2018-12-30T08:13:49.771Z,18.60
2018-12-30T08:14:49.703Z,16.70
2018-12-30T08:15:49.637Z,19.20
2018-12-30T08:16:49.567Z,19.00
2018-12-30T08:17:49.500Z,17.50
2018-12-30T08:18:49.431Z,17.80
2018-12-30T08:19:49.365Z,18.10
2018-12-30T08:20:49.297Z,18.00
2018-12-30T08:21:49.229Z,19.30
2018-12-30T08:22:49.161Z,18.60
2018-12-30T08:23:49.097Z,16.50
2018-12-30T08:24:49.027Z,18.50
2018-12-30T08:25:48.958Z,21.00
2018-12-30T08:26:48.892Z,17.40
2018-12-30T08:27:48.825Z,18.80
2018-12-30T08:28:48.758Z,15.80
2018-12-30T08:29:48.688Z,17.20
2018-12-30T08:30:48.622Z,17.00
2018-12-30T08:31:48.556Z,18.00
2018-12-30T08:32:48.491Z,18.40
2018-12-30T08:33:48.417Z,15.40
2018-12-30T08:34:48.352Z,17.00
2018-12-30T08:35:48.282Z,19.90
2018-12-30T08:36:48.217Z,18.10
2018-12-30T08:37:48.149Z,17.60
2018-12-30T08:38:48.081Z,19.70
2018-12-30T08:39:48.015Z,18.90
2018-12-30T08:40:47.948Z,16.10
2018-12-30T08:41:47.878Z,18.20
2018-12-30T08:42:47.812Z,18.90
2018-12-30T08:43:47.743Z,18.20
2018-12-30T08:44:47.677Z,19.40
2018-12-30T08:45:47.611Z,17.00
2018-12-30T08:46:47.544Z,19.70
2018-12-30T08:47:47.474Z,15.40
2018-12-30T08:48:47.406Z,17.50
2018-12-30T08:49:47.336Z,15.30
2018-12-30T08:50:47.268Z,16.50
2018-12-30T08:51:47.206Z,16.40
2018-12-30T08:52:47.142Z,16.60
2018-12-30T08:53:47.067Z,15.90
2018-12-30T08:54:47.001Z,17.70
2018-12-30T08:55:46.945Z,17.40
2018-12-30T08:56:46.866Z,18.70
2018-12-30T08:57:46.798Z,16.80
2018-12-30T08:58:46.729Z,16.10
2018-12-30T08:59:46.661Z,16.70
2018-12-30T09:00:46.595Z,17.30
2018-12-30T09:01:46.527Z,15.40
2018-12-30T09:02:46.460Z,17.70
2018-12-30T09:03:46.392Z,17.80
2018-12-30T09:04:46.325Z,17.70
2018-12-30T09:05:46.259Z,17.70
2018-12-30T09:06:46.188Z,21.60
2018-12-30T09:07:46.124Z,17.20
2018-12-30T09:08:46.066Z,18.10
2018-12-30T09:09:45.986Z,19.40
2018-12-30T09:10:45.917Z,15.60
2018-12-30T09:11:45.852Z,16.00
2018-12-30T09:12:45.788Z,17.10
2018-12-30T09:13:45.717Z,16.80
2018-12-30T09:14:45.649Z,16.00
2018-12-30T09:15:45.582Z,20.80
2018-12-30T09:16:45.514Z,16.20
2018-12-30T09:17:45.448Z,15.50
2018-12-30T09:18:45.382Z,19.10
2018-12-30T09:19:45.314Z,17.10
2018-12-30T09:20:45.245Z,14.90
2018-12-30T09:21:45.179Z,16.60
2018-12-30T09:22:45.110Z,15.40
2018-12-30T09:23:45.042Z,15.30
2018-12-30T09:24:44.975Z,15.30
2018-12-30T09:25:44.903Z,14.90
2018-12-30T09:26:44.838Z,16.30
2018-12-30T09:27:44.774Z,16.50
2018-12-30T09:28:44.706Z,15.40
2018-12-30T09:29:44.639Z,16.70
2018-12-30T09:30:44.572Z,15.50
2018-12-30T09:31:44.504Z,19.20
2018-12-30T09:32:44.437Z,18.10
2018-12-30T09:33:44.371Z,14.00
2018-12-30T09:34:44.303Z,16.10
2018-12-30T09:35:44.241Z,15.50
2018-12-30T09:36:44.166Z,13.90
2018-12-30T09:37:44.100Z,14.90
2018-12-30T09:38:44.031Z,16.70
2018-12-30T09:39:43.964Z,15.90
2018-12-30T09:40:43.898Z,15.60
2018-12-30T09:41:43.833Z,16.60
2018-12-30T09:42:43.768Z,15.30
2018-12-30T09:43:43.695Z,14.10
2018-12-30T09:44:43.631Z,14.50
2018-12-30T09:45:43.561Z,19.50
2018-12-30T09:46:43.494Z,17.90
2018-12-30T09:47:43.427Z,15.60
2018-12-30T09:48:43.362Z,16.30
2018-12-30T09:49:43.299Z,17.50
2018-12-30T09:50:43.225Z,16.80
2018-12-30T09:51:43.158Z,18.50
2018-12-30T09:52:43.093Z,15.00
2018-12-30T09:53:45.187Z,15.50
2018-12-30T09:54:42.957Z,15.50
2018-12-30T09:55:42.891Z,16.20
2018-12-30T09:56:42.823Z,15.40
2018-12-30T09:57:42.756Z,12.00
2018-12-30T09:58:42.689Z,15.70
2018-12-30T09:59:42.622Z,14.50
2018-12-30T10:00:42.557Z,14.70
2018-12-30T10:01:42.484Z,14.70
2018-12-30T10:02:42.420Z,15.30
2018-12-30T10:03:42.351Z,12.50
2018-12-30T10:04:42.286Z,16.00
2018-12-30T10:05:42.219Z,15.60
2018-12-30T10:06:42.150Z,14.50
2018-12-30T10:07:42.086Z,13.90
2018-12-30T10:08:42.017Z,13.10
2018-12-30T10:09:41.951Z,15.70
2018-12-30T10:10:41.883Z,14.70
2018-12-30T10:11:41.816Z,12.50
2018-12-30T10:12:41.748Z,14.50
2018-12-30T10:13:41.681Z,15.80
2018-12-30T10:14:41.613Z,14.00
2018-12-30T10:15:41.546Z,15.30
2018-12-30T10:16:41.484Z,15.10
2018-12-30T10:17:41.411Z,13.80
2018-12-30T10:18:41.357Z,16.60
2018-12-30T10:19:41.283Z,17.70
2018-12-30T10:20:41.215Z,15.60
2018-12-30T10:21:41.143Z,15.70
2018-12-30T10:22:41.077Z,14.00
2018-12-30T10:23:41.010Z,15.60
2018-12-30T10:24:40.946Z,16.00
2018-12-30T10:25:40.876Z,15.40
2018-12-30T10:26:40.811Z,14.90
2018-12-30T10:27:40.745Z,14.60
2018-12-30T10:28:40.678Z,16.60
2018-12-30T10:29:40.608Z,15.70
2018-12-30T10:30:40.539Z,16.00
2018-12-30T10:31:40.472Z,15.70
2018-12-30T10:32:40.409Z,16.10
2018-12-30T10:33:40.345Z,14.60
2018-12-30T10:34:40.270Z,17.30
2018-12-30T10:35:40.207Z,14.30
2018-12-30T10:36:40.140Z,16.30
2018-12-30T10:37:40.072Z,13.60
2018-12-30T10:38:40.001Z,14.40
2018-12-30T10:39:39.935Z,14.30
2018-12-30T10:40:39.876Z,15.90
2018-12-30T10:41:39.801Z,17.40
2018-12-30T10:42:39.737Z,15.30
2018-12-30T10:43:39.672Z,16.70
2018-12-30T10:44:39.607Z,16.60
2018-12-30T10:45:39.536Z,15.40
2018-12-30T10:46:39.469Z,15.70
2018-12-30T10:47:39.404Z,12.10
2018-12-30T10:48:39.335Z,16.30
2018-12-30T10:49:39.267Z,13.80
2018-12-30T10:50:39.203Z,15.60
2018-12-30T10:51:39.137Z,18.70
2018-12-30T10:52:39.069Z,14.10
2018-12-30T10:53:39.000Z,14.40
2018-12-30T10:54:38.934Z,12.30
2018-12-30T10:55:38.877Z,14.80
2018-12-30T10:56:38.799Z,13.70
2018-12-30T10:57:38.731Z,16.60
2018-12-30T10:58:38.663Z,13.90
2018-12-30T10:59:38.596Z,12.10
2018-12-30T11:00:38.531Z,13.50
2018-12-30T11:01:38.461Z,13.50
2018-12-30T11:02:38.396Z,14.80
2018-12-30T11:03:38.333Z,17.30
2018-12-30T11:04:38.263Z,18.20
2018-12-30T11:05:38.201Z,14.30
2018-12-30T11:06:38.126Z,20.00
2018-12-30T11:07:38.059Z,16.60
2018-12-30T11:08:37.993Z,16.20
2018-12-30T11:09:37.932Z,13.60
2018-12-30T11:10:37.858Z,15.40
2018-12-30T11:11:37.793Z,13.40
2018-12-30T11:12:37.725Z,16.50
2018-12-30T11:13:37.658Z,14.70
2018-12-30T11:14:37.593Z,15.80
2018-12-30T11:15:37.525Z,14.20
2018-12-30T11:16:37.458Z,15.30
2018-12-30T11:17:37.389Z,14.10
2018-12-30T11:18:37.321Z,14.30
2018-12-30T11:19:37.256Z,14.70
2018-12-30T11:20:37.190Z,14.40
2018-12-30T11:21:37.122Z,12.80
2018-12-30T11:22:37.054Z,17.60
2018-12-30T11:23:36.990Z,12.80
2018-12-30T11:24:36.922Z,12.20
2018-12-30T11:25:36.857Z,14.20
2018-12-30T11:26:36.788Z,14.40
2018-12-30T11:27:36.737Z,11.20
2018-12-30T11:28:36.651Z,16.80
2018-12-30T11:29:36.587Z,13.20
2018-12-30T11:30:36.538Z,13.90
2018-12-30T11:31:36.453Z,12.60
2018-12-30T11:32:36.388Z,12.30
2018-12-30T11:33:36.321Z,14.20
2018-12-30T11:34:36.254Z,12.50
2018-12-30T11:35:36.184Z,14.70
2018-12-30T11:36:36.119Z,16.00
2018-12-30T11:37:36.061Z,12.40
2018-12-30T11:38:35.987Z,13.30
2018-12-30T11:39:35.920Z,12.60
2018-12-30T11:40:35.853Z,11.30
2018-12-30T11:41:35.787Z,12.30
2018-12-30T11:42:35.718Z,10.90
2018-12-30T11:43:35.654Z,10.70
2018-12-30T11:44:35.584Z,13.60
2018-12-30T11:45:35.522Z,13.50
2018-12-30T11:46:35.454Z,13.10
2018-12-30T11:47:35.385Z,13.40
2018-12-30T11:48:35.317Z,11.80
2018-12-30T11:49:35.251Z,12.80
2018-12-30T11:50:35.185Z,11.30
2018-12-30T11:51:35.120Z,10.40
2018-12-30T11:52:35.052Z,12.00
2018-12-30T11:53:34.983Z,13.00
2018-12-30T11:54:34.919Z,12.00
2018-12-30T11:55:34.852Z,12.80
2018-12-30T11:56:34.786Z,13.40
2018-12-30T11:57:34.720Z,14.80
2018-12-30T11:58:34.652Z,13.70
2018-12-30T11:59:34.585Z,13.20
2018-12-30T12:00:34.517Z,11.80
2018-12-30T12:01:34.450Z,14.10
2018-12-30T12:02:34.384Z,14.90
2018-12-30T12:03:34.318Z,11.00
2018-12-30T12:04:34.252Z,13.20
2018-12-30T12:05:34.188Z,13.60
2018-12-30T12:06:34.970Z,14.00
2018-12-30T12:07:34.049Z,12.70
2018-12-30T12:08:33.988Z,12.80
2018-12-30T12:09:33.918Z,13.50
2018-12-30T12:10:33.851Z,13.90
2018-12-30T12:11:33.790Z,12.20
2018-12-30T12:12:35.514Z,12.30
2018-12-30T12:13:33.670Z,11.90
2018-12-30T12:14:33.600Z,12.30
2018-12-30T12:15:33.519Z,14.60
2018-12-30T12:16:33.455Z,10.30
2018-12-30T12:17:33.391Z,10.30
2018-12-30T12:18:33.321Z,9.90
2018-12-30T12:19:33.257Z,11.50
2018-12-30T12:20:33.187Z,12.00
2018-12-30T12:21:33.119Z,14.10
2018-12-30T12:22:33.055Z,10.80
2018-12-30T12:23:32.987Z,12.40
2018-12-30T12:24:32.922Z,13.30
2018-12-30T12:25:32.856Z,13.50
2018-12-30T12:26:32.789Z,13.10
2018-12-30T12:27:32.724Z,14.20
2018-12-30T12:28:32.654Z,10.10
2018-12-30T12:29:32.592Z,16.80
2018-12-30T12:30:32.521Z,12.60
2018-12-30T12:31:32.457Z,11.50
2018-12-30T12:32:32.392Z,13.60
2018-12-30T12:33:32.322Z,13.00
2018-12-30T12:34:32.256Z,12.60
2018-12-30T12:35:32.191Z,10.80
2018-12-30T12:36:32.123Z,9.70
2018-12-30T12:37:32.056Z,13.70
2018-12-30T12:38:31.995Z,11.60
2018-12-30T12:39:31.926Z,11.60
2018-12-30T12:40:31.861Z,12.20
2018-12-30T12:41:31.815Z,10.80
2018-12-30T12:42:31.722Z,11.40
2018-12-30T12:43:31.657Z,11.70
2018-12-30T12:44:31.592Z,12.50
2018-12-30T12:45:31.526Z,13.20
2018-12-30T12:46:31.459Z,13.20
2018-12-30T12:47:31.407Z,12.60
2018-12-30T12:48:31.326Z,13.30
2018-12-30T12:49:31.258Z,11.60
2018-12-30T12:50:31.196Z,12.50
2018-12-30T12:51:31.127Z,10.20